sensor_id;sensor_type;location;lat;lon;timestamp;P1;durP1;ratioP1;P2;durP2;ratioP2
79454;SDS011;68900;52.134;5.420;2023-11-22T00:02:16;9.45;;;4.78;;
79454;SDS011;68900;52.134;5.420;2023-11-22T00:04:44;10.70;;;5.30;;
79454;SDS011;68900;52.134;5.420;2023-11-22T00:07:10;9.88;;;4.57;;
79454;SDS011;68900;52.134;5.420;2023-11-22T00:09:37;12.70;;;5.78;;
79454;SDS011;68900;52.134;5.420;2023-11-22T00:14:30;10.87;;;4.90;;
79454;SDS011;68900;52.134;5.420;2023-11-22T00:16:57;11.57;;;5.15;;
79454;SDS011;68900;52.134;5.420;2023-11-22T00:19:24;11.93;;;5.30;;
79454;SDS011;68900;52.134;5.420;2023-11-22T00:21:50;9.13;;;5.20;;
79454;SDS011;68900;52.134;5.420;2023-11-22T00:24:17;12.30;;;4.70;;
79454;SDS011;68900;52.134;5.420;2023-11-22T00:26:44;11.35;;;5.10;;
79454;SDS011;68900;52.134;5.420;2023-11-22T00:29:11;10.20;;;5.22;;
79454;SDS011;68900;52.134;5.420;2023-11-22T00:31:38;9.50;;;4.88;;
79454;SDS011;68900;52.134;5.420;2023-11-22T00:34:05;10.10;;;5.22;;
79454;SDS011;68900;52.134;5.420;2023-11-22T00:36:31;13.52;;;5.60;;
79454;SDS011;68900;52.134;5.420;2023-11-22T00:38:58;13.98;;;5.43;;
79454;SDS011;68900;52.134;5.420;2023-11-22T00:41:29;11.65;;;5.78;;
79454;SDS011;68900;52.134;5.420;2023-11-22T00:43:56;11.55;;;5.00;;
79454;SDS011;68900;52.134;5.420;2023-11-22T00:46:23;9.52;;;5.20;;
79454;SDS011;68900;52.134;5.420;2023-11-22T00:48:49;10.68;;;4.97;;
79454;SDS011;68900;52.134;5.420;2023-11-22T00:51:16;9.90;;;5.10;;
79454;SDS011;68900;52.134;5.420;2023-11-22T00:53:43;9.07;;;4.43;;
79454;SDS011;68900;52.134;5.420;2023-11-22T00:56:09;11.00;;;5.30;;
79454;SDS011;68900;52.134;5.420;2023-11-22T00:58:36;10.95;;;5.03;;
79454;SDS011;68900;52.134;5.420;2023-11-22T01:01:02;12.27;;;5.00;;
79454;SDS011;68900;52.134;5.420;2023-11-22T01:03:29;10.73;;;5.07;;
79454;SDS011;68900;52.134;5.420;2023-11-22T01:05:55;11.80;;;5.47;;
79454;SDS011;68900;52.134;5.420;2023-11-22T01:08:22;12.05;;;5.40;;
79454;SDS011;68900;52.134;5.420;2023-11-22T01:10:51;9.68;;;4.90;;
79454;SDS011;68900;52.134;5.420;2023-11-22T01:13:17;10.95;;;5.00;;
79454;SDS011;68900;52.134;5.420;2023-11-22T01:15:44;10.80;;;5.55;;
79454;SDS011;68900;52.134;5.420;2023-11-22T01:18:13;10.95;;;5.18;;
79454;SDS011;68900;52.134;5.420;2023-11-22T01:20:40;10.77;;;5.10;;
79454;SDS011;68900;52.134;5.420;2023-11-22T01:23:06;10.73;;;5.43;;
79454;SDS011;68900;52.134;5.420;2023-11-22T01:25:33;10.02;;;4.78;;
79454;SDS011;68900;52.134;5.420;2023-11-22T01:28:00;12.00;;;4.82;;
79454;SDS011;68900;52.134;5.420;2023-11-22T01:30:26;10.82;;;4.72;;
79454;SDS011;68900;52.134;5.420;2023-11-22T01:32:55;10.43;;;5.20;;
79454;SDS011;68900;52.134;5.420;2023-11-22T01:35:21;9.60;;;5.13;;
79454;SDS011;68900;52.134;5.420;2023-11-22T01:37:51;11.40;;;4.80;;
79454;SDS011;68900;52.134;5.420;2023-11-22T01:40:18;9.07;;;4.47;;
79454;SDS011;68900;52.134;5.420;2023-11-22T01:42:45;10.07;;;5.00;;
79454;SDS011;68900;52.134;5.420;2023-11-22T01:45:12;8.85;;;4.63;;
79454;SDS011;68900;52.134;5.420;2023-11-22T01:50:09;9.48;;;4.43;;
79454;SDS011;68900;52.134;5.420;2023-11-22T01:52:36;11.82;;;4.75;;
79454;SDS011;68900;52.134;5.420;2023-11-22T01:55:04;10.40;;;4.82;;
79454;SDS011;68900;52.134;5.420;2023-11-22T01:57:32;10.43;;;4.70;;
79454;SDS011;68900;52.134;5.420;2023-11-22T02:00:02;10.57;;;5.20;;
79454;SDS011;68900;52.134;5.420;2023-11-22T02:02:30;9.85;;;5.40;;
79454;SDS011;68900;52.134;5.420;2023-11-22T02:04:58;9.02;;;4.88;;
79454;SDS011;68900;52.134;5.420;2023-11-22T02:07:25;9.93;;;5.30;;
79454;SDS011;68900;52.134;5.420;2023-11-22T02:09:53;11.15;;;4.88;;
79454;SDS011;68900;52.134;5.420;2023-11-22T02:12:21;10.05;;;5.03;;
79454;SDS011;68900;52.134;5.420;2023-11-22T02:14:48;11.95;;;4.70;;
79454;SDS011;68900;52.134;5.420;2023-11-22T02:17:15;8.73;;;4.80;;
79454;SDS011;68900;52.134;5.420;2023-11-22T02:19:45;8.38;;;4.40;;
79454;SDS011;68900;52.134;5.420;2023-11-22T02:22:12;10.80;;;4.75;;
79454;SDS011;68900;52.134;5.420;2023-11-22T02:24:38;10.73;;;4.82;;
79454;SDS011;68900;52.134;5.420;2023-11-22T02:27:06;10.68;;;4.97;;
79454;SDS011;68900;52.134;5.420;2023-11-22T02:29:35;11.80;;;5.28;;
79454;SDS011;68900;52.134;5.420;2023-11-22T02:32:02;11.35;;;5.00;;
79454;SDS011;68900;52.134;5.420;2023-11-22T02:34:30;12.80;;;5.20;;
79454;SDS011;68900;52.134;5.420;2023-11-22T02:36:57;11.00;;;4.88;;
79454;SDS011;68900;52.134;5.420;2023-11-22T02:39:32;10.48;;;4.88;;
79454;SDS011;68900;52.134;5.420;2023-11-22T02:42:07;9.05;;;4.38;;
79454;SDS011;68900;52.134;5.420;2023-11-22T02:44:35;11.85;;;5.07;;
79454;SDS011;68900;52.134;5.420;2023-11-22T02:47:01;11.50;;;4.70;;
79454;SDS011;68900;52.134;5.420;2023-11-22T02:49:28;10.52;;;4.93;;
79454;SDS011;68900;52.134;5.420;2023-11-22T02:51:55;8.32;;;4.68;;
79454;SDS011;68900;52.134;5.420;2023-11-22T02:54:22;11.00;;;4.93;;
79454;SDS011;68900;52.134;5.420;2023-11-22T02:56:48;10.93;;;4.15;;
79454;SDS011;68900;52.134;5.420;2023-11-22T02:59:15;10.65;;;4.97;;
79454;SDS011;68900;52.134;5.420;2023-11-22T03:01:42;8.75;;;4.60;;
79454;SDS011;68900;52.134;5.420;2023-11-22T03:04:09;9.80;;;4.85;;
79454;SDS011;68900;52.134;5.420;2023-11-22T03:06:36;9.90;;;4.65;;
79454;SDS011;68900;52.134;5.420;2023-11-22T03:09:02;12.40;;;5.40;;
79454;SDS011;68900;52.134;5.420;2023-11-22T03:11:30;9.10;;;4.40;;
79454;SDS011;68900;52.134;5.420;2023-11-22T03:13:58;9.77;;;4.38;;
79454;SDS011;68900;52.134;5.420;2023-11-22T03:16:25;9.68;;;4.57;;
79454;SDS011;68900;52.134;5.420;2023-11-22T03:18:51;7.90;;;4.05;;
79454;SDS011;68900;52.134;5.420;2023-11-22T03:21:18;7.38;;;3.58;;
79454;SDS011;68900;52.134;5.420;2023-11-22T03:23:44;10.57;;;4.40;;
79454;SDS011;68900;52.134;5.420;2023-11-22T03:26:11;9.98;;;4.47;;
79454;SDS011;68900;52.134;5.420;2023-11-22T03:28:38;10.35;;;4.35;;
79454;SDS011;68900;52.134;5.420;2023-11-22T03:31:04;8.77;;;4.25;;
79454;SDS011;68900;52.134;5.420;2023-11-22T03:33:34;8.40;;;3.95;;
79454;SDS011;68900;52.134;5.420;2023-11-22T03:36:00;8.50;;;4.05;;
79454;SDS011;68900;52.134;5.420;2023-11-22T03:38:28;10.35;;;4.20;;
79454;SDS011;68900;52.134;5.420;2023-11-22T03:40:54;9.48;;;4.60;;
79454;SDS011;68900;52.134;5.420;2023-11-22T03:43:21;8.90;;;4.20;;
79454;SDS011;68900;52.134;5.420;2023-11-22T03:45:48;9.23;;;4.57;;
79454;SDS011;68900;52.134;5.420;2023-11-22T03:48:14;10.43;;;4.57;;
79454;SDS011;68900;52.134;5.420;2023-11-22T03:50:41;12.07;;;4.35;;
79454;SDS011;68900;52.134;5.420;2023-11-22T03:53:08;11.48;;;4.57;;
79454;SDS011;68900;52.134;5.420;2023-11-22T03:58:04;9.63;;;4.07;;
79454;SDS011;68900;52.134;5.420;2023-11-22T04:00:30;9.50;;;4.38;;
79454;SDS011;68900;52.134;5.420;2023-11-22T04:02:58;10.27;;;4.72;;
79454;SDS011;68900;52.134;5.420;2023-11-22T04:05:28;10.55;;;4.78;;
79454;SDS011;68900;52.134;5.420;2023-11-22T04:07:55;11.25;;;4.93;;
79454;SDS011;68900;52.134;5.420;2023-11-22T04:10:22;10.57;;;4.97;;
79454;SDS011;68900;52.134;5.420;2023-11-22T04:12:49;11.15;;;5.20;;
79454;SDS011;68900;52.134;5.420;2023-11-22T04:15:16;10.93;;;4.85;;
79454;SDS011;68900;52.134;5.420;2023-11-22T04:17:42;11.20;;;5.20;;
79454;SDS011;68900;52.134;5.420;2023-11-22T04:20:10;10.35;;;4.50;;
79454;SDS011;68900;52.134;5.420;2023-11-22T04:22:37;11.57;;;5.07;;
79454;SDS011;68900;52.134;5.420;2023-11-22T04:25:04;11.05;;;5.05;;
79454;SDS011;68900;52.134;5.420;2023-11-22T04:27:32;10.18;;;4.70;;
79454;SDS011;68900;52.134;5.420;2023-11-22T04:29:59;11.98;;;5.10;;
79454;SDS011;68900;52.134;5.420;2023-11-22T04:32:25;11.07;;;5.20;;
79454;SDS011;68900;52.134;5.420;2023-11-22T04:34:52;10.20;;;4.72;;
79454;SDS011;68900;52.134;5.420;2023-11-22T04:37:18;11.60;;;5.35;;
79454;SDS011;68900;52.134;5.420;2023-11-22T04:39:45;10.77;;;5.03;;
79454;SDS011;68900;52.134;5.420;2023-11-22T04:42:15;10.93;;;4.60;;
79454;SDS011;68900;52.134;5.420;2023-11-22T04:44:41;11.15;;;4.90;;
79454;SDS011;68900;52.134;5.420;2023-11-22T04:47:08;11.88;;;4.70;;
79454;SDS011;68900;52.134;5.420;2023-11-22T04:49:34;11.80;;;4.97;;
79454;SDS011;68900;52.134;5.420;2023-11-22T04:52:01;12.05;;;5.32;;
79454;SDS011;68900;52.134;5.420;2023-11-22T04:54:27;9.95;;;4.72;;
79454;SDS011;68900;52.134;5.420;2023-11-22T04:56:54;11.27;;;5.15;;
79454;SDS011;68900;52.134;5.420;2023-11-22T04:59:21;15.27;;;4.97;;
79454;SDS011;68900;52.134;5.420;2023-11-22T05:01:48;12.05;;;5.10;;
79454;SDS011;68900;52.134;5.420;2023-11-22T05:04:15;10.60;;;4.63;;
79454;SDS011;68900;52.134;5.420;2023-11-22T05:06:41;11.13;;;4.82;;
79454;SDS011;68900;52.134;5.420;2023-11-22T05:09:09;9.68;;;4.65;;
79454;SDS011;68900;52.134;5.420;2023-11-22T05:11:37;11.15;;;5.10;;
79454;SDS011;68900;52.134;5.420;2023-11-22T05:14:03;11.52;;;5.05;;
79454;SDS011;68900;52.134;5.420;2023-11-22T05:16:30;10.85;;;4.88;;
79454;SDS011;68900;52.134;5.420;2023-11-22T05:18:56;11.32;;;4.82;;
79454;SDS011;68900;52.134;5.420;2023-11-22T05:21:23;10.50;;;4.93;;
79454;SDS011;68900;52.134;5.420;2023-11-22T05:23:49;11.63;;;4.97;;
79454;SDS011;68900;52.134;5.420;2023-11-22T05:26:16;11.65;;;5.20;;
79454;SDS011;68900;52.134;5.420;2023-11-22T05:28:45;11.63;;;5.68;;
79454;SDS011;68900;52.134;5.420;2023-11-22T05:31:15;10.90;;;5.03;;
79454;SDS011;68900;52.134;5.420;2023-11-22T05:33:42;8.80;;;3.95;;
79454;SDS011;68900;52.134;5.420;2023-11-22T05:36:08;11.27;;;5.28;;
79454;SDS011;68900;52.134;5.420;2023-11-22T05:38:36;10.80;;;4.97;;
79454;SDS011;68900;52.134;5.420;2023-11-22T05:41:03;9.85;;;4.82;;
79454;SDS011;68900;52.134;5.420;2023-11-22T05:43:30;11.00;;;4.80;;
79454;SDS011;68900;52.134;5.420;2023-11-22T05:45:56;11.93;;;5.20;;
79454;SDS011;68900;52.134;5.420;2023-11-22T05:48:23;10.20;;;4.82;;
79454;SDS011;68900;52.134;5.420;2023-11-22T05:50:49;10.20;;;4.50;;
79454;SDS011;68900;52.134;5.420;2023-11-22T05:53:16;11.10;;;4.85;;
79454;SDS011;68900;52.134;5.420;2023-11-22T05:55:46;11.85;;;6.10;;
79454;SDS011;68900;52.134;5.420;2023-11-22T05:58:15;14.07;;;5.03;;
79454;SDS011;68900;52.134;5.420;2023-11-22T06:00:43;16.92;;;5.22;;
79454;SDS011;68900;52.134;5.420;2023-11-22T06:03:10;10.88;;;5.00;;
79454;SDS011;68900;52.134;5.420;2023-11-22T06:05:37;10.75;;;4.68;;
79454;SDS011;68900;52.134;5.420;2023-11-22T06:08:04;11.82;;;5.78;;
79454;SDS011;68900;52.134;5.420;2023-11-22T06:10:31;10.18;;;4.85;;
79454;SDS011;68900;52.134;5.420;2023-11-22T06:12:57;11.10;;;5.30;;
79454;SDS011;68900;52.134;5.420;2023-11-22T06:15:24;12.23;;;5.63;;
79454;SDS011;68900;52.134;5.420;2023-11-22T06:17:50;11.43;;;5.38;;
79454;SDS011;68900;52.134;5.420;2023-11-22T06:20:17;13.30;;;5.68;;
79454;SDS011;68900;52.134;5.420;2023-11-22T06:22:43;12.85;;;5.65;;
79454;SDS011;68900;52.134;5.420;2023-11-22T06:25:11;12.95;;;5.60;;
79454;SDS011;68900;52.134;5.420;2023-11-22T06:27:38;11.13;;;5.05;;
79454;SDS011;68900;52.134;5.420;2023-11-22T06:30:05;11.27;;;5.13;;
79454;SDS011;68900;52.134;5.420;2023-11-22T06:32:35;12.48;;;5.15;;
79454;SDS011;68900;52.134;5.420;2023-11-22T06:35:02;11.45;;;5.90;;
79454;SDS011;68900;52.134;5.420;2023-11-22T06:37:29;14.00;;;5.93;;
79454;SDS011;68900;52.134;5.420;2023-11-22T06:39:56;14.35;;;5.68;;
79454;SDS011;68900;52.134;5.420;2023-11-22T06:42:23;11.82;;;5.55;;
79454;SDS011;68900;52.134;5.420;2023-11-22T06:44:50;12.73;;;5.75;;
79454;SDS011;68900;52.134;5.420;2023-11-22T06:47:19;12.50;;;5.70;;
79454;SDS011;68900;52.134;5.420;2023-11-22T06:49:46;11.68;;;5.40;;
79454;SDS011;68900;52.134;5.420;2023-11-22T06:52:12;11.77;;;5.75;;
79454;SDS011;68900;52.134;5.420;2023-11-22T06:54:39;16.77;;;6.38;;
79454;SDS011;68900;52.134;5.420;2023-11-22T06:57:05;12.05;;;5.18;;
79454;SDS011;68900;52.134;5.420;2023-11-22T06:59:31;14.52;;;5.63;;
79454;SDS011;68900;52.134;5.420;2023-11-22T07:01:59;12.98;;;5.65;;
79454;SDS011;68900;52.134;5.420;2023-11-22T07:04:26;13.85;;;5.95;;
79454;SDS011;68900;52.134;5.420;2023-11-22T07:06:54;12.90;;;5.78;;
79454;SDS011;68900;52.134;5.420;2023-11-22T07:09:20;12.55;;;5.70;;
79454;SDS011;68900;52.134;5.420;2023-11-22T07:11:49;14.82;;;5.70;;
79454;SDS011;68900;52.134;5.420;2023-11-22T07:14:16;11.00;;;5.40;;
79454;SDS011;68900;52.134;5.420;2023-11-22T07:16:43;13.63;;;6.05;;
79454;SDS011;68900;52.134;5.420;2023-11-22T07:19:09;14.95;;;5.55;;
79454;SDS011;68900;52.134;5.420;2023-11-22T07:21:38;14.55;;;5.72;;
79454;SDS011;68900;52.134;5.420;2023-11-22T07:24:08;14.30;;;6.25;;
79454;SDS011;68900;52.134;5.420;2023-11-22T07:26:35;14.05;;;5.90;;
79454;SDS011;68900;52.134;5.420;2023-11-22T07:29:03;13.10;;;6.07;;
79454;SDS011;68900;52.134;5.420;2023-11-22T07:31:34;16.50;;;6.55;;
79454;SDS011;68900;52.134;5.420;2023-11-22T07:34:02;12.95;;;5.75;;
79454;SDS011;68900;52.134;5.420;2023-11-22T07:36:28;13.63;;;5.90;;
79454;SDS011;68900;52.134;5.420;2023-11-22T07:38:56;16.23;;;6.55;;
79454;SDS011;68900;52.134;5.420;2023-11-22T07:41:23;15.50;;;6.07;;
79454;SDS011;68900;52.134;5.420;2023-11-22T07:43:50;13.35;;;5.80;;
79454;SDS011;68900;52.134;5.420;2023-11-22T07:46:16;14.38;;;5.88;;
79454;SDS011;68900;52.134;5.420;2023-11-22T07:48:45;15.23;;;5.80;;
79454;SDS011;68900;52.134;5.420;2023-11-22T07:51:14;13.43;;;5.82;;
79454;SDS011;68900;52.134;5.420;2023-11-22T07:53:43;13.68;;;6.18;;
79454;SDS011;68900;52.134;5.420;2023-11-22T07:56:15;13.00;;;5.32;;
79454;SDS011;68900;52.134;5.420;2023-11-22T07:58:45;12.98;;;5.80;;
79454;SDS011;68900;52.134;5.420;2023-11-22T08:01:14;12.98;;;5.90;;
79454;SDS011;68900;52.134;5.420;2023-11-22T08:03:40;14.73;;;6.30;;
79454;SDS011;68900;52.134;5.420;2023-11-22T08:06:12;11.30;;;5.63;;
79454;SDS011;68900;52.134;5.420;2023-11-22T08:08:39;12.68;;;5.93;;
79454;SDS011;68900;52.134;5.420;2023-11-22T08:11:06;13.55;;;5.97;;
79454;SDS011;68900;52.134;5.420;2023-11-22T08:13:41;12.95;;;5.82;;
79454;SDS011;68900;52.134;5.420;2023-11-22T08:16:09;14.30;;;6.38;;
79454;SDS011;68900;52.134;5.420;2023-11-22T08:18:35;14.07;;;6.30;;
79454;SDS011;68900;52.134;5.420;2023-11-22T08:21:02;17.38;;;7.00;;
79454;SDS011;68900;52.134;5.420;2023-11-22T08:23:30;13.35;;;6.55;;
79454;SDS011;68900;52.134;5.420;2023-11-22T08:25:59;15.15;;;6.65;;
79454;SDS011;68900;52.134;5.420;2023-11-22T08:28:25;14.23;;;6.57;;
79454;SDS011;68900;52.134;5.420;2023-11-22T08:30:55;15.48;;;6.75;;
79454;SDS011;68900;52.134;5.420;2023-11-22T08:33:31;14.10;;;6.80;;
79454;SDS011;68900;52.134;5.420;2023-11-22T08:35:57;14.52;;;6.45;;
79454;SDS011;68900;52.134;5.420;2023-11-22T08:38:27;12.70;;;6.55;;
79454;SDS011;68900;52.134;5.420;2023-11-22T08:40:53;15.40;;;6.95;;
79454;SDS011;68900;52.134;5.420;2023-11-22T08:43:21;17.65;;;6.93;;
79454;SDS011;68900;52.134;5.420;2023-11-22T08:45:49;13.38;;;6.22;;
79454;SDS011;68900;52.134;5.420;2023-11-22T08:48:23;13.80;;;6.75;;
79454;SDS011;68900;52.134;5.420;2023-11-22T08:50:53;14.82;;;6.47;;
79454;SDS011;68900;52.134;5.420;2023-11-22T08:53:22;16.00;;;6.60;;
79454;SDS011;68900;52.134;5.420;2023-11-22T08:55:57;15.38;;;7.10;;
79454;SDS011;68900;52.134;5.420;2023-11-22T08:58:24;16.85;;;7.13;;
79454;SDS011;68900;52.134;5.420;2023-11-22T09:00:51;16.45;;;6.80;;
79454;SDS011;68900;52.134;5.420;2023-11-22T09:03:17;15.45;;;6.57;;
79454;SDS011;68900;52.134;5.420;2023-11-22T09:05:45;14.18;;;6.75;;
79454;SDS011;68900;52.134;5.420;2023-11-22T09:08:12;15.88;;;7.38;;
79454;SDS011;68900;52.134;5.420;2023-11-22T09:10:50;15.07;;;6.75;;
79454;SDS011;68900;52.134;5.420;2023-11-22T09:13:31;15.73;;;6.78;;
79454;SDS011;68900;52.134;5.420;2023-11-22T09:18:26;13.25;;;5.80;;
79454;SDS011;68900;52.134;5.420;2023-11-22T09:20:53;13.20;;;6.15;;
79454;SDS011;68900;52.134;5.420;2023-11-22T09:23:20;17.08;;;7.53;;
79454;SDS011;68900;52.134;5.420;2023-11-22T09:25:47;14.80;;;7.43;;
79454;SDS011;68900;52.134;5.420;2023-11-22T09:28:13;16.80;;;7.03;;
79454;SDS011;68900;52.134;5.420;2023-11-22T09:30:42;14.25;;;6.80;;
79454;SDS011;68900;52.134;5.420;2023-11-22T09:33:10;19.40;;;7.65;;
79454;SDS011;68900;52.134;5.420;2023-11-22T09:35:43;17.08;;;6.82;;
79454;SDS011;68900;52.134;5.420;2023-11-22T09:38:12;17.33;;;7.38;;
79454;SDS011;68900;52.134;5.420;2023-11-22T09:40:46;17.17;;;7.00;;
79454;SDS011;68900;52.134;5.420;2023-11-22T09:43:18;15.05;;;6.38;;
79454;SDS011;68900;52.134;5.420;2023-11-22T09:45:49;14.57;;;6.40;;
79454;SDS011;68900;52.134;5.420;2023-11-22T09:48:22;16.08;;;7.22;;
79454;SDS011;68900;52.134;5.420;2023-11-22T09:53:56;17.08;;;7.72;;
79454;SDS011;68900;52.134;5.420;2023-11-22T09:56:24;15.95;;;7.70;;
79454;SDS011;68900;52.134;5.420;2023-11-22T09:58:52;16.60;;;7.75;;
79454;SDS011;68900;52.134;5.420;2023-11-22T10:01:23;17.52;;;7.07;;
79454;SDS011;68900;52.134;5.420;2023-11-22T10:03:50;15.98;;;7.03;;
79454;SDS011;68900;52.134;5.420;2023-11-22T10:06:17;16.45;;;7.55;;
79454;SDS011;68900;52.134;5.420;2023-11-22T10:08:46;17.77;;;7.75;;
79454;SDS011;68900;52.134;5.420;2023-11-22T10:11:17;19.35;;;8.07;;
79454;SDS011;68900;52.134;5.420;2023-11-22T10:13:47;16.35;;;7.30;;
79454;SDS011;68900;52.134;5.420;2023-11-22T10:16:17;18.23;;;7.90;;
79454;SDS011;68900;52.134;5.420;2023-11-22T10:18:46;17.75;;;7.28;;
79454;SDS011;68900;52.134;5.420;2023-11-22T10:21:23;17.02;;;7.78;;
79454;SDS011;68900;52.134;5.420;2023-11-22T10:23:58;17.75;;;7.60;;
79454;SDS011;68900;52.134;5.420;2023-11-22T10:26:31;17.55;;;7.63;;
79454;SDS011;68900;52.134;5.420;2023-11-22T10:28:59;17.90;;;8.23;;
79454;SDS011;68900;52.134;5.420;2023-11-22T10:31:26;14.85;;;7.03;;
79454;SDS011;68900;52.134;5.420;2023-11-22T10:33:54;20.20;;;7.97;;
79454;SDS011;68900;52.134;5.420;2023-11-22T10:36:25;17.75;;;7.40;;
79454;SDS011;68900;52.134;5.420;2023-11-22T10:38:51;17.02;;;7.90;;
79454;SDS011;68900;52.134;5.420;2023-11-22T10:41:19;18.98;;;8.23;;
79454;SDS011;68900;52.134;5.420;2023-11-22T10:43:50;15.10;;;7.07;;
79454;SDS011;68900;52.134;5.420;2023-11-22T10:46:18;17.38;;;7.50;;
79454;SDS011;68900;52.134;5.420;2023-11-22T10:48:51;17.83;;;7.80;;
79454;SDS011;68900;52.134;5.420;2023-11-22T10:51:17;15.73;;;7.38;;
79454;SDS011;68900;52.134;5.420;2023-11-22T10:53:48;16.63;;;7.25;;
79454;SDS011;68900;52.134;5.420;2023-11-22T10:56:17;17.90;;;7.35;;
79454;SDS011;68900;52.134;5.420;2023-11-22T10:58:49;16.70;;;7.88;;
79454;SDS011;68900;52.134;5.420;2023-11-22T11:01:24;15.68;;;6.93;;
79454;SDS011;68900;52.134;5.420;2023-11-22T11:06:25;15.32;;;7.82;;
79454;SDS011;68900;52.134;5.420;2023-11-22T11:08:55;15.13;;;7.72;;
79454;SDS011;68900;52.134;5.420;2023-11-22T11:11:27;14.48;;;7.45;;
79454;SDS011;68900;52.134;5.420;2023-11-22T11:13:55;17.55;;;7.72;;
79454;SDS011;68900;52.134;5.420;2023-11-22T11:16:23;16.10;;;7.25;;
79454;SDS011;68900;52.134;5.420;2023-11-22T11:18:50;16.17;;;7.90;;
79454;SDS011;68900;52.134;5.420;2023-11-22T11:21:19;16.73;;;8.00;;
79454;SDS011;68900;52.134;5.420;2023-11-22T11:23:46;18.85;;;8.05;;
79454;SDS011;68900;52.134;5.420;2023-11-22T11:26:17;16.83;;;7.95;;
79454;SDS011;68900;52.134;5.420;2023-11-22T11:28:48;16.15;;;7.60;;
79454;SDS011;68900;52.134;5.420;2023-11-22T11:31:16;16.58;;;7.82;;
79454;SDS011;68900;52.134;5.420;2023-11-22T11:36:23;15.25;;;7.57;;
79454;SDS011;68900;52.134;5.420;2023-11-22T11:38:51;16.45;;;6.60;;
79454;SDS011;68900;52.134;5.420;2023-11-22T11:41:18;15.30;;;6.95;;
79454;SDS011;68900;52.134;5.420;2023-11-22T11:43:45;16.70;;;7.40;;
79454;SDS011;68900;52.134;5.420;2023-11-22T11:46:18;18.25;;;8.05;;
79454;SDS011;68900;52.134;5.420;2023-11-22T11:48:45;16.17;;;7.22;;
79454;SDS011;68900;52.134;5.420;2023-11-22T11:51:18;15.52;;;7.03;;
79454;SDS011;68900;52.134;5.420;2023-11-22T11:53:48;16.10;;;6.68;;
79454;SDS011;68900;52.134;5.420;2023-11-22T11:56:18;15.10;;;6.78;;
79454;SDS011;68900;52.134;5.420;2023-11-22T11:58:45;15.27;;;6.95;;
79454;SDS011;68900;52.134;5.420;2023-11-22T12:01:13;13.93;;;6.88;;
79454;SDS011;68900;52.134;5.420;2023-11-22T12:03:43;12.95;;;6.38;;
79454;SDS011;68900;52.134;5.420;2023-11-22T12:06:13;14.13;;;6.47;;
79454;SDS011;68900;52.134;5.420;2023-11-22T12:08:45;14.93;;;7.65;;
79454;SDS011;68900;52.134;5.420;2023-11-22T12:11:14;14.52;;;7.28;;
79454;SDS011;68900;52.134;5.420;2023-11-22T12:13:42;15.85;;;7.10;;
79454;SDS011;68900;52.134;5.420;2023-11-22T12:16:16;14.73;;;6.78;;
79454;SDS011;68900;52.134;5.420;2023-11-22T12:18:45;15.68;;;6.88;;
79454;SDS011;68900;52.134;5.420;2023-11-22T12:21:16;15.38;;;6.75;;
79454;SDS011;68900;52.134;5.420;2023-11-22T12:23:44;14.30;;;6.60;;
79454;SDS011;68900;52.134;5.420;2023-11-22T12:26:14;12.88;;;6.15;;
79454;SDS011;68900;52.134;5.420;2023-11-22T12:28:41;14.85;;;6.82;;
79454;SDS011;68900;52.134;5.420;2023-11-22T12:31:22;13.95;;;6.60;;
79454;SDS011;68900;52.134;5.420;2023-11-22T12:33:50;14.00;;;7.25;;
79454;SDS011;68900;52.134;5.420;2023-11-22T12:36:19;16.73;;;7.80;;
79454;SDS011;68900;52.134;5.420;2023-11-22T12:38:46;15.65;;;7.10;;
79454;SDS011;68900;52.134;5.420;2023-11-22T12:41:14;15.65;;;7.07;;
79454;SDS011;68900;52.134;5.420;2023-11-22T12:43:42;18.85;;;8.38;;
79454;SDS011;68900;52.134;5.420;2023-11-22T12:46:16;16.00;;;7.32;;
79454;SDS011;68900;52.134;5.420;2023-11-22T12:48:44;14.30;;;7.07;;
79454;SDS011;68900;52.134;5.420;2023-11-22T12:51:15;17.70;;;8.02;;
79454;SDS011;68900;52.134;5.420;2023-11-22T12:53:52;15.73;;;7.68;;
79454;SDS011;68900;52.134;5.420;2023-11-22T12:56:19;15.23;;;8.07;;
79454;SDS011;68900;52.134;5.420;2023-11-22T12:58:46;20.48;;;9.05;;
79454;SDS011;68900;52.134;5.420;2023-11-22T13:01:17;17.15;;;7.47;;
79454;SDS011;68900;52.134;5.420;2023-11-22T13:03:44;17.90;;;8.50;;
79454;SDS011;68900;52.134;5.420;2023-11-22T13:06:11;16.63;;;7.38;;
79454;SDS011;68900;52.134;5.420;2023-11-22T13:08:37;16.67;;;8.38;;
79454;SDS011;68900;52.134;5.420;2023-11-22T13:11:04;19.42;;;8.35;;
79454;SDS011;68900;52.134;5.420;2023-11-22T13:13:30;16.70;;;8.40;;
79454;SDS011;68900;52.134;5.420;2023-11-22T13:15:57;16.95;;;7.72;;
79454;SDS011;68900;52.134;5.420;2023-11-22T13:18:24;15.43;;;7.90;;
79454;SDS011;68900;52.134;5.420;2023-11-22T13:20:53;19.30;;;8.27;;
79454;SDS011;68900;52.134;5.420;2023-11-22T13:23:19;16.55;;;7.72;;
79454;SDS011;68900;52.134;5.420;2023-11-22T13:25:46;22.20;;;8.65;;
79454;SDS011;68900;52.134;5.420;2023-11-22T13:28:15;18.25;;;8.50;;
79454;SDS011;68900;52.134;5.420;2023-11-22T13:30:43;16.50;;;7.93;;
79454;SDS011;68900;52.134;5.420;2023-11-22T13:33:10;16.23;;;8.13;;
79454;SDS011;68900;52.134;5.420;2023-11-22T13:35:39;16.70;;;8.10;;
79454;SDS011;68900;52.134;5.420;2023-11-22T13:38:06;15.23;;;7.93;;
79454;SDS011;68900;52.134;5.420;2023-11-22T13:40:38;16.92;;;8.50;;
79454;SDS011;68900;52.134;5.420;2023-11-22T13:43:06;14.65;;;7.88;;
79454;SDS011;68900;52.134;5.420;2023-11-22T13:45:37;16.52;;;8.23;;
79454;SDS011;68900;52.134;5.420;2023-11-22T13:48:10;18.05;;;8.02;;
79454;SDS011;68900;52.134;5.420;2023-11-22T13:50:38;17.10;;;8.30;;
79454;SDS011;68900;52.134;5.420;2023-11-22T13:53:06;15.93;;;8.20;;
79454;SDS011;68900;52.134;5.420;2023-11-22T13:55:35;16.85;;;7.60;;
79454;SDS011;68900;52.134;5.420;2023-11-22T13:58:03;15.25;;;7.80;;
79454;SDS011;68900;52.134;5.420;2023-11-22T14:00:31;15.07;;;8.15;;
79454;SDS011;68900;52.134;5.420;2023-11-22T14:03:01;16.05;;;8.20;;
79454;SDS011;68900;52.134;5.420;2023-11-22T14:05:34;15.25;;;7.53;;
79454;SDS011;68900;52.134;5.420;2023-11-22T14:10:42;14.65;;;7.50;;
79454;SDS011;68900;52.134;5.420;2023-11-22T14:13:11;16.20;;;7.85;;
79454;SDS011;68900;52.134;5.420;2023-11-22T14:15:38;16.00;;;7.80;;
79454;SDS011;68900;52.134;5.420;2023-11-22T14:18:04;15.75;;;7.82;;
79454;SDS011;68900;52.134;5.420;2023-11-22T14:20:31;19.23;;;8.88;;
79454;SDS011;68900;52.134;5.420;2023-11-22T14:25:27;19.08;;;8.75;;
79454;SDS011;68900;52.134;5.420;2023-11-22T14:27:55;21.95;;;9.65;;
79454;SDS011;68900;52.134;5.420;2023-11-22T14:30:23;21.30;;;9.70;;
79454;SDS011;68900;52.134;5.420;2023-11-22T14:32:53;16.70;;;8.48;;
79454;SDS011;68900;52.134;5.420;2023-11-22T14:35:20;17.90;;;9.15;;
79454;SDS011;68900;52.134;5.420;2023-11-22T14:37:46;19.52;;;9.45;;
79454;SDS011;68900;52.134;5.420;2023-11-22T14:40:18;18.67;;;8.57;;
79454;SDS011;68900;52.134;5.420;2023-11-22T14:42:46;19.73;;;9.75;;
79454;SDS011;68900;52.134;5.420;2023-11-22T14:45:18;20.65;;;9.73;;
79454;SDS011;68900;52.134;5.420;2023-11-22T14:47:46;19.63;;;9.48;;
79454;SDS011;68900;52.134;5.420;2023-11-22T14:50:13;22.15;;;10.35;;
79454;SDS011;68900;52.134;5.420;2023-11-22T14:52:43;20.33;;;9.25;;
79454;SDS011;68900;52.134;5.420;2023-11-22T14:55:11;21.77;;;10.23;;
79454;SDS011;68900;52.134;5.420;2023-11-22T14:57:38;22.27;;;10.43;;
79454;SDS011;68900;52.134;5.420;2023-11-22T15:00:05;20.73;;;10.23;;
79454;SDS011;68900;52.134;5.420;2023-11-22T15:02:44;20.20;;;9.90;;
79454;SDS011;68900;52.134;5.420;2023-11-22T15:05:16;22.00;;;10.27;;